createdAt,value
2017-11-10T19:44:07.693Z,76.67
2017-11-10T19:46:37.841Z,77.85
2017-11-10T19:49:09.106Z,78.35
2017-11-10T19:51:38.762Z,78.41
2017-11-10T19:54:07.442Z,78.37
2017-11-10T19:56:35.552Z,78.79
2017-11-10T19:59:10.210Z,78.80
2017-11-10T20:01:38.669Z,78.82
2017-11-10T20:04:08.087Z,79.25
2017-11-10T20:06:37.907Z,78.96
2017-11-10T20:09:06.112Z,79.06
2017-11-10T20:11:35.204Z,79.23
2017-11-10T20:14:04.708Z,80.31
2017-11-10T20:22:35.189Z,81.37
2017-11-10T20:25:03.222Z,81.32
2017-11-10T20:27:30.966Z,82.08
2017-11-10T20:30:00.572Z,82.79
2017-11-10T20:32:40.814Z,83.18
2017-11-10T20:35:08.838Z,83.53
2017-11-10T20:37:36.622Z,83.66
2017-11-10T20:40:05.318Z,84.12
2017-11-10T20:42:33.937Z,84.36
2017-11-10T20:45:01.915Z,84.87
2017-11-10T20:47:29.706Z,85.05
2017-11-10T20:49:57.713Z,85.07
2017-11-10T20:52:25.327Z,84.81
2017-11-10T20:54:54.837Z,85.51
2017-11-10T20:57:22.495Z,85.32
2017-11-10T20:59:51.106Z,85.53
2017-11-10T21:02:18.966Z,85.46
2017-11-10T21:04:46.883Z,85.25
2017-11-10T21:07:16.055Z,85.66
2017-11-10T21:09:45.558Z,85.66
2017-11-10T21:12:13.890Z,85.16
2017-11-10T21:14:43.679Z,85.01
2017-11-10T21:17:12.326Z,85.14
2017-11-10T21:19:40.495Z,85.37
2017-11-10T21:22:09.499Z,85.20
2017-11-10T21:24:37.810Z,85.17
2017-11-10T21:27:05.377Z,85.01
2017-11-10T21:29:36.957Z,84.81
2017-11-10T21:32:05.587Z,84.79
2017-11-10T21:34:34.413Z,84.68
2017-11-10T21:37:02.436Z,84.47
2017-11-10T21:39:30.368Z,84.60
2017-11-10T21:41:58.973Z,84.81
2017-11-10T21:44:29.419Z,84.51
2017-11-10T21:46:58.157Z,84.02
2017-11-10T21:49:26.685Z,84.44
2017-11-10T21:51:54.381Z,84.31
2017-11-10T21:54:21.972Z,84.90
2017-11-10T21:56:49.629Z,84.29
2017-11-10T21:59:19.971Z,84.19
2017-11-10T22:01:48.018Z,83.92
2017-11-10T22:04:18.358Z,83.96
2017-11-10T22:06:46.257Z,84.03
2017-11-10T22:09:15.422Z,83.51
2017-11-10T22:11:46.860Z,83.39
2017-11-10T22:14:14.917Z,83.94
2017-11-10T22:16:42.994Z,83.60
2017-11-10T22:19:12.371Z,83.32
2017-11-10T22:21:40.393Z,82.82
2017-11-10T22:24:10.008Z,84.01
2017-11-10T22:26:42.724Z,83.63
2017-11-10T22:29:11.041Z,83.68
2017-11-10T22:31:41.606Z,84.16
2017-11-10T22:34:09.417Z,83.61
2017-11-10T22:36:37.454Z,83.60
2017-11-10T22:39:11.995Z,83.90
2017-11-10T22:41:45.389Z,83.36
2017-11-10T22:44:14.767Z,83.93
2017-11-10T22:46:42.823Z,83.18
2017-11-10T22:49:11.517Z,82.57
2017-11-10T22:51:40.506Z,82.75
2017-11-10T22:54:12.810Z,83.10
2017-11-10T22:56:59.067Z,83.21
2017-11-10T22:59:28.069Z,83.61
2017-11-10T23:01:57.063Z,83.80
2017-11-10T23:04:28.181Z,83.36
2017-11-10T23:06:58.120Z,83.12
2017-11-10T23:09:26.054Z,83.31
2017-11-10T23:11:54.334Z,83.09
2017-11-10T23:14:27.995Z,82.71
2017-11-10T23:16:58.143Z,82.37
2017-11-10T23:19:37.563Z,82.24
2017-11-10T23:22:06.442Z,82.20
2017-11-10T23:24:36.064Z,81.79
2017-11-10T23:27:04.995Z,82.52
2017-11-10T23:29:32.970Z,81.94
2017-11-10T23:32:01.066Z,81.90
2017-11-10T23:34:29.170Z,81.91
2017-11-10T23:36:58.300Z,82.26
2017-11-10T23:39:29.458Z,83.15
2017-11-10T23:41:58.776Z,82.83
2017-11-10T23:44:31.404Z,82.74
2017-11-10T23:47:05.869Z,82.57
2017-11-10T23:49:35.530Z,82.51
2017-11-10T23:52:03.789Z,82.30
2017-11-10T23:54:31.578Z,82.44
2017-11-10T23:56:59.507Z,82.60
2017-11-10T23:59:28.376Z,82.53
